createdAt,value
2019-04-05T00:02:18.322Z,5.90
2019-04-05T00:04:48.018Z,5.90
2019-04-05T00:07:17.875Z,5.80
2019-04-05T00:09:47.534Z,5.80
2019-04-05T00:12:17.227Z,5.80
2019-04-05T00:14:46.953Z,5.80
2019-04-05T00:17:17.186Z,5.80
2019-04-05T00:19:46.891Z,5.80
2019-04-05T00:22:16.651Z,5.80
2019-04-05T00:24:46.322Z,5.80
2019-04-05T00:27:15.924Z,5.80
2019-04-05T00:29:45.665Z,5.80
2019-04-05T00:32:15.323Z,5.90
2019-04-05T00:34:45.146Z,5.90
2019-04-05T00:37:14.844Z,5.90
2019-04-05T00:39:44.521Z,5.90
2019-04-05T00:42:14.081Z,5.90
2019-04-05T00:44:43.949Z,5.90
2019-04-05T00:47:14.269Z,5.90
2019-04-05T00:49:43.946Z,5.90
2019-04-05T00:52:13.639Z,5.90
2019-04-05T00:54:43.651Z,5.90
2019-04-05T00:57:13.221Z,5.90
2019-04-05T00:59:43.541Z,5.90
2019-04-05T01:02:13.176Z,5.90
2019-04-05T01:04:42.988Z,5.80
2019-04-05T01:07:13.331Z,5.90
2019-04-05T01:09:44.887Z,5.90
2019-04-05T01:12:14.645Z,5.90
2019-04-05T01:14:44.413Z,5.90
2019-04-05T01:17:24.368Z,6.00
2019-04-05T01:19:49.133Z,6.00
2019-04-05T01:22:22.667Z,6.00
2019-04-05T01:24:52.317Z,6.00
2019-04-05T01:27:25.528Z,6.00
2019-04-05T01:29:55.187Z,6.00
2019-04-05T01:32:24.861Z,6.00
2019-04-05T01:34:54.593Z,5.90
2019-04-05T01:37:24.584Z,5.90
2019-04-05T01:39:54.487Z,6.00
2019-04-05T01:42:27.236Z,5.90
2019-04-05T01:44:57.728Z,5.90
2019-04-05T01:47:27.626Z,5.90
2019-04-05T01:49:57.286Z,5.90
2019-04-05T01:52:26.980Z,5.90
2019-04-05T01:54:56.621Z,5.90
2019-04-05T01:57:26.457Z,5.90
2019-04-05T01:59:57.701Z,5.90
2019-04-05T02:02:27.416Z,5.90
2019-04-05T02:04:57.203Z,5.90
2019-04-05T02:07:26.882Z,5.90
2019-04-05T02:09:56.532Z,5.90
2019-04-05T02:12:26.198Z,5.90
2019-04-05T02:14:56.195Z,5.90
2019-04-05T02:17:25.926Z,5.90
2019-04-05T02:19:55.638Z,5.90
2019-04-05T02:22:25.485Z,5.90
2019-04-05T02:24:56.251Z,5.90
2019-04-05T02:27:25.921Z,5.90
2019-04-05T02:29:56.147Z,5.90
2019-04-05T02:32:25.805Z,5.90
2019-04-05T02:34:56.990Z,5.90
2019-04-05T02:37:26.981Z,5.90
2019-04-05T02:39:56.801Z,5.90
2019-04-05T02:42:27.095Z,5.90
2019-04-05T02:44:57.151Z,5.90
2019-04-05T02:47:27.501Z,5.90
2019-04-05T02:49:58.649Z,5.90
2019-04-05T02:52:30.169Z,6.00
2019-04-05T02:55:01.294Z,5.90
2019-04-05T02:57:32.452Z,5.90
2019-04-05T03:00:03.291Z,5.90
2019-04-05T03:02:34.162Z,5.90
2019-04-05T03:05:04.383Z,5.80
2019-04-05T03:07:35.253Z,5.90
2019-04-05T03:10:06.213Z,5.80
2019-04-05T03:12:36.932Z,5.90
2019-04-05T03:15:08.938Z,5.90
2019-04-05T03:17:39.300Z,5.90
2019-04-05T03:20:09.208Z,5.90
2019-04-05T03:22:39.577Z,5.90
2019-04-05T03:25:11.232Z,5.90
2019-04-05T03:27:41.438Z,5.90
2019-04-05T03:30:11.521Z,5.90
2019-04-05T03:32:41.905Z,5.90
2019-04-05T03:35:13.354Z,5.80
2019-04-05T03:37:43.246Z,5.80
2019-04-05T03:40:14.686Z,5.80
2019-04-05T03:42:47.466Z,5.80
2019-04-05T03:45:17.532Z,5.80
2019-04-05T03:47:49.119Z,5.70
2019-04-05T03:50:20.152Z,5.70
2019-04-05T03:52:49.908Z,5.70
2019-04-05T03:55:20.346Z,5.80
2019-04-05T03:57:50.158Z,5.80
2019-04-05T04:00:20.960Z,5.80
2019-04-05T04:02:50.788Z,5.80
2019-04-05T04:05:20.630Z,5.70
2019-04-05T04:07:50.440Z,5.70
2019-04-05T04:10:20.488Z,5.70
2019-04-05T04:12:51.221Z,5.80
2019-04-05T04:15:21.282Z,5.70
2019-04-05T04:17:51.565Z,5.80
2019-04-05T04:20:46.989Z,5.80
2019-04-05T04:23:17.758Z,5.80
2019-04-05T04:25:47.754Z,5.70
2019-04-05T04:28:17.711Z,5.70
2019-04-05T04:30:47.543Z,5.70
2019-04-05T04:33:18.052Z,5.70
2019-04-05T04:35:48.268Z,5.70
2019-04-05T04:38:18.801Z,5.80
2019-04-05T04:40:48.936Z,5.70
2019-04-05T04:43:18.854Z,5.70
2019-04-05T04:45:48.545Z,5.70
2019-04-05T04:48:20.209Z,5.70
2019-04-05T04:50:50.390Z,5.70
2019-04-05T04:53:20.223Z,5.70
2019-04-05T04:55:53.332Z,5.70
2019-04-05T04:58:26.086Z,5.70
2019-04-05T05:00:55.833Z,5.70
2019-04-05T05:03:27.879Z,5.80
2019-04-05T05:05:58.007Z,5.70
2019-04-05T05:08:27.777Z,5.70
2019-04-05T05:10:57.844Z,5.80
2019-04-05T05:13:27.975Z,5.80
2019-04-05T05:15:57.834Z,5.80
2019-04-05T05:18:27.506Z,5.80
2019-04-05T05:20:58.331Z,5.80
2019-04-05T05:23:30.955Z,5.80
2019-04-05T05:26:01.960Z,5.80
2019-04-05T05:28:32.858Z,5.80
2019-04-05T05:31:03.815Z,5.80
2019-04-05T05:33:53.089Z,5.90
2019-04-05T05:36:23.272Z,5.80
2019-04-05T05:38:53.560Z,5.80
2019-04-05T05:41:23.483Z,5.70
2019-04-05T05:43:53.444Z,5.70
2019-04-05T05:46:23.226Z,5.70
2019-04-05T05:48:53.437Z,5.80
2019-04-05T05:51:24.764Z,5.80
2019-04-05T05:53:54.496Z,5.80
2019-04-05T05:56:24.379Z,5.80
2019-04-05T05:58:58.861Z,5.80
2019-04-05T06:01:25.887Z,5.80
2019-04-05T06:03:55.890Z,5.80
2019-04-05T06:06:26.964Z,5.90
2019-04-05T06:08:57.567Z,5.90
2019-04-05T06:11:27.556Z,5.90
2019-04-05T06:14:01.909Z,5.90
2019-04-05T06:16:31.814Z,5.90
2019-04-05T06:19:04.144Z,5.90
2019-04-05T06:21:35.569Z,5.90
2019-04-05T06:24:05.911Z,6.00
2019-04-05T06:26:35.954Z,6.00
2019-04-05T06:29:06.122Z,5.90
2019-04-05T06:31:35.960Z,5.90
2019-04-05T06:34:06.587Z,5.80
2019-04-05T06:36:36.608Z,5.80
2019-04-05T06:39:08.755Z,5.90
2019-04-05T06:41:38.745Z,5.90
2019-04-05T06:44:09.230Z,5.90
2019-04-05T06:46:39.234Z,5.80
2019-04-05T06:49:08.973Z,5.70
2019-04-05T06:51:38.905Z,5.80
2019-04-05T06:54:08.690Z,5.80
2019-04-05T06:56:38.516Z,5.80
2019-04-05T06:59:08.443Z,5.80
2019-04-05T07:01:38.409Z,5.80
2019-04-05T07:04:11.483Z,5.70
2019-04-05T07:06:41.244Z,5.70
2019-04-05T07:09:11.282Z,5.70
2019-04-05T07:12:00.473Z,5.80
2019-04-05T07:14:30.197Z,5.80
2019-04-05T07:17:00.376Z,5.80
2019-04-05T07:19:35.556Z,5.80
2019-04-05T07:22:06.861Z,5.90
2019-04-05T07:24:38.052Z,5.80
2019-04-05T07:27:09.535Z,5.80
2019-04-05T07:29:39.949Z,5.90
2019-04-05T07:32:09.918Z,5.80
2019-04-05T07:34:39.916Z,5.80
2019-04-05T07:37:09.711Z,5.80
2019-04-05T07:39:40.083Z,5.80
2019-04-05T07:42:09.850Z,5.80
2019-04-05T07:44:40.019Z,5.70
2019-04-05T07:47:10.314Z,5.60
2019-04-05T07:49:59.396Z,5.70
2019-04-05T07:52:32.174Z,5.80
2019-04-05T07:55:01.835Z,5.80
2019-04-05T07:57:32.289Z,5.80
2019-04-05T08:00:02.000Z,5.80
2019-04-05T08:02:35.959Z,5.90
2019-04-05T08:05:25.004Z,5.80
2019-04-05T08:07:55.609Z,5.80
2019-04-05T08:10:28.341Z,5.80
2019-04-05T08:12:59.348Z,5.90
2019-04-05T08:15:29.537Z,6.00
2019-04-05T08:17:59.268Z,5.90
2019-04-05T08:20:30.474Z,6.10
2019-04-05T08:23:00.126Z,6.20
2019-04-05T08:25:30.211Z,6.30
2019-04-05T08:28:00.137Z,6.40
2019-04-05T08:30:29.804Z,6.30
2019-04-05T08:32:59.474Z,6.30
2019-04-05T08:35:29.225Z,6.40
2019-04-05T08:37:59.049Z,6.50
2019-04-05T08:40:29.204Z,6.40
2019-04-05T08:42:59.040Z,6.50
2019-04-05T08:45:29.002Z,6.50
2019-04-05T08:47:58.805Z,6.60
2019-04-05T08:50:28.623Z,6.60
2019-04-05T08:52:58.482Z,6.80
2019-04-05T08:55:28.418Z,6.90
2019-04-05T08:57:58.029Z,6.70
2019-04-05T09:00:28.830Z,6.70
2019-04-05T09:02:59.227Z,6.70
2019-04-05T09:05:29.163Z,6.80
2019-04-05T09:07:58.912Z,6.70
2019-04-05T09:10:28.632Z,6.60
2019-04-05T09:12:58.440Z,6.80
2019-04-05T09:15:28.400Z,6.70
2019-04-05T09:17:58.214Z,6.70
2019-04-05T09:20:27.924Z,6.70
2019-04-05T09:22:57.737Z,6.90
2019-04-05T09:25:27.735Z,6.90
2019-04-05T09:27:57.596Z,6.70
2019-04-05T09:30:29.166Z,6.70
2019-04-05T09:32:58.805Z,6.80
2019-04-05T09:35:28.834Z,6.90
2019-04-05T09:38:17.720Z,7.10
2019-04-05T09:40:47.380Z,7.10
2019-04-05T09:43:17.175Z,7.10
2019-04-05T09:45:48.063Z,7.00
2019-04-05T09:48:17.774Z,6.90
2019-04-05T09:50:47.455Z,6.80
2019-04-05T09:53:17.299Z,6.70
2019-04-05T09:55:47.069Z,6.80
2019-04-05T09:58:16.881Z,6.80
2019-04-05T10:00:48.380Z,6.80
2019-04-05T10:03:19.809Z,6.80
2019-04-05T10:05:49.524Z,6.80
2019-04-05T10:08:19.348Z,6.90
2019-04-05T10:10:52.681Z,7.10
2019-04-05T10:13:22.479Z,7.00
2019-04-05T10:15:52.576Z,7.00
2019-04-05T10:18:22.686Z,7.00
2019-04-05T10:20:52.488Z,7.00
2019-04-05T10:23:24.289Z,6.90
2019-04-05T10:26:13.346Z,7.00
2019-04-05T10:28:43.148Z,7.00
2019-04-05T10:31:13.412Z,7.00
2019-04-05T10:33:44.179Z,7.00
2019-04-05T10:36:13.991Z,7.00
2019-04-05T10:38:43.702Z,7.00
2019-04-05T10:41:13.473Z,7.00
2019-04-05T10:43:43.375Z,7.00
2019-04-05T10:46:13.103Z,7.00
2019-04-05T10:48:42.986Z,7.00
2019-04-05T10:51:13.029Z,7.10
2019-04-05T10:53:42.742Z,7.20
2019-04-05T10:56:12.382Z,7.20
2019-04-05T10:58:42.129Z,7.10
2019-04-05T11:01:11.969Z,7.10
2019-04-05T11:03:41.972Z,7.10
2019-04-05T11:06:12.146Z,7.10
2019-04-05T11:08:41.982Z,7.10
2019-04-05T11:11:11.692Z,7.10
2019-04-05T11:13:41.549Z,7.10
2019-04-05T11:16:30.570Z,7.20
2019-04-05T11:19:02.297Z,6.90
2019-04-05T11:21:32.437Z,7.00
2019-04-05T11:24:02.212Z,7.20
2019-04-05T11:26:32.244Z,7.20
2019-04-05T11:29:02.160Z,7.20
2019-04-05T11:31:32.183Z,7.20
2019-04-05T11:34:01.841Z,7.20
2019-04-05T11:36:32.181Z,7.20
2019-04-05T11:39:05.415Z,7.10
2019-04-05T11:41:37.204Z,7.20
2019-04-05T11:44:07.157Z,7.20
2019-04-05T11:46:39.959Z,7.20
2019-04-05T11:49:09.777Z,7.30
2019-04-05T11:51:39.640Z,7.20
2019-04-05T11:54:09.394Z,7.20
2019-04-05T11:56:39.183Z,7.20
2019-04-05T11:59:10.629Z,7.20
2019-04-05T12:01:41.922Z,7.20
2019-04-05T12:04:13.169Z,7.20
2019-04-05T12:06:43.094Z,7.30
2019-04-05T12:09:13.004Z,7.30
2019-04-05T12:11:42.682Z,7.40
2019-04-05T12:14:12.328Z,7.40
2019-04-05T12:16:42.135Z,7.20
2019-04-05T12:19:12.139Z,7.30
2019-04-05T12:21:42.044Z,7.30
2019-04-05T12:24:11.794Z,7.30
2019-04-05T12:26:42.761Z,7.20
2019-04-05T12:29:12.689Z,7.20
2019-04-05T12:31:42.786Z,7.20
2019-04-05T12:34:12.424Z,7.30
2019-04-05T12:36:42.242Z,7.20
2019-04-05T12:39:12.056Z,7.30
2019-04-05T12:41:44.910Z,7.40
2019-04-05T12:44:15.255Z,7.40
2019-04-05T12:46:45.869Z,7.30
2019-04-05T12:49:16.072Z,7.30
2019-04-05T12:51:46.195Z,7.30
2019-04-05T12:54:16.415Z,7.30
2019-04-05T12:56:46.277Z,7.30
2019-04-05T12:59:16.081Z,7.40
2019-04-05T13:01:46.530Z,7.40
2019-04-05T13:04:16.357Z,7.30
2019-04-05T13:06:46.098Z,7.30
2019-04-05T13:09:16.000Z,7.30
2019-04-05T13:11:45.919Z,7.40
2019-04-05T13:14:15.769Z,7.40
2019-04-05T13:16:45.727Z,7.40
2019-04-05T13:19:16.941Z,7.40
2019-04-05T13:21:46.768Z,7.50
2019-04-05T13:24:16.476Z,7.50
2019-04-05T13:26:47.992Z,7.50
2019-04-05T13:29:38.977Z,7.40
2019-04-05T13:32:08.710Z,7.30
2019-04-05T13:34:38.589Z,7.40
2019-04-05T13:37:19.694Z,7.50
2019-04-05T13:39:40.286Z,7.40
2019-04-05T13:42:10.133Z,7.40
2019-04-05T13:44:40.074Z,7.30
2019-04-05T13:47:10.178Z,7.20
2019-04-05T13:49:41.307Z,7.30
2019-04-05T13:52:12.054Z,7.20
2019-04-05T13:54:44.710Z,7.20
2019-04-05T13:57:14.513Z,7.20
2019-04-05T13:59:46.125Z,7.20
2019-04-05T14:02:15.908Z,7.20
2019-04-05T14:04:45.568Z,7.20
2019-04-05T14:07:16.383Z,7.30
2019-04-05T14:09:46.214Z,7.30
2019-04-05T14:12:16.056Z,7.30
2019-04-05T14:14:49.778Z,7.20
2019-04-05T14:17:17.095Z,7.20
2019-04-05T14:19:48.733Z,7.20
2019-04-05T14:22:18.430Z,7.30
2019-04-05T14:24:48.164Z,7.10
2019-04-05T14:27:18.172Z,7.20
2019-04-05T14:29:48.054Z,7.30
2019-04-05T14:32:21.054Z,7.30
2019-04-05T14:34:49.551Z,7.20
2019-04-05T14:37:21.373Z,7.10
2019-04-05T14:39:50.749Z,7.10
2019-04-05T14:42:22.060Z,7.10
2019-04-05T14:44:51.932Z,7.10
2019-04-05T14:47:21.814Z,7.10
2019-04-05T14:49:51.432Z,7.10
2019-04-05T14:52:21.218Z,7.20
2019-04-05T14:54:50.970Z,7.10
2019-04-05T14:57:20.853Z,7.10
2019-04-05T14:59:50.720Z,7.30
2019-04-05T15:02:20.570Z,7.30
2019-04-05T15:04:50.428Z,7.20
2019-04-05T15:07:20.834Z,7.10
2019-04-05T15:09:54.664Z,7.10
2019-04-05T15:12:22.780Z,7.10
2019-04-05T15:14:52.556Z,7.10
2019-04-05T15:17:22.325Z,6.90
2019-04-05T15:19:53.613Z,7.00
2019-04-05T15:22:23.520Z,7.00
2019-04-05T15:24:53.267Z,6.90
2019-04-05T15:27:43.430Z,7.00
2019-04-05T15:30:15.311Z,7.00
2019-04-05T15:33:04.828Z,7.00
2019-04-05T15:35:34.571Z,7.10
2019-04-05T15:38:07.716Z,7.10
2019-04-05T15:40:37.874Z,7.00
2019-04-05T15:43:09.492Z,7.00
2019-04-05T15:45:42.727Z,7.10
2019-04-05T15:48:12.305Z,7.10
2019-04-05T15:50:42.121Z,7.20
2019-04-05T15:53:12.081Z,7.20
2019-04-05T15:55:41.997Z,7.20
2019-04-05T15:58:12.338Z,7.10
2019-04-05T16:00:44.763Z,7.10
2019-04-05T16:03:15.910Z,7.00
2019-04-05T16:05:47.000Z,7.00
2019-04-05T16:08:19.638Z,6.90
2019-04-05T16:10:49.411Z,6.90
2019-04-05T16:13:20.050Z,7.00
2019-04-05T16:15:49.807Z,7.00
2019-04-05T16:18:19.978Z,6.90
2019-04-05T16:20:49.735Z,6.90
2019-04-05T16:23:20.257Z,6.90
2019-04-05T16:25:51.398Z,6.90
2019-04-05T16:28:21.191Z,7.00
2019-04-05T16:30:51.955Z,6.90
2019-04-05T16:33:23.585Z,6.90
2019-04-05T16:35:53.777Z,6.90
2019-04-05T16:38:24.219Z,6.90
2019-04-05T16:40:54.147Z,6.90
2019-04-05T16:43:24.042Z,6.90
2019-04-05T16:45:54.131Z,6.90
2019-04-05T16:48:24.441Z,6.90
2019-04-05T16:50:54.511Z,6.90
2019-04-05T16:53:24.398Z,6.90
2019-04-05T16:55:54.420Z,6.90
2019-04-05T16:58:24.135Z,6.90
2019-04-05T17:00:54.309Z,6.90
2019-04-05T17:03:24.381Z,6.90
2019-04-05T17:05:54.483Z,6.90
2019-04-05T17:08:24.303Z,6.90
2019-04-05T17:10:53.993Z,7.00
2019-04-05T17:13:24.161Z,7.00
2019-04-05T17:15:53.842Z,7.00
2019-04-05T17:18:23.662Z,7.00
2019-04-05T17:21:06.096Z,7.00
2019-04-05T17:23:36.266Z,7.10
2019-04-05T17:26:06.126Z,7.00
2019-04-05T17:28:36.502Z,7.00
2019-04-05T17:31:06.437Z,7.00
2019-04-05T17:33:36.568Z,7.00
2019-04-05T17:36:06.463Z,7.00
2019-04-05T17:38:36.464Z,7.00
2019-04-05T17:41:07.664Z,7.00
2019-04-05T17:43:37.308Z,7.00
2019-04-05T17:46:07.132Z,7.00
2019-04-05T17:48:37.408Z,6.90
2019-04-05T17:51:07.539Z,7.00
2019-04-05T17:53:38.673Z,7.00
2019-04-05T17:56:08.638Z,7.00
2019-04-05T17:58:38.577Z,7.00
2019-04-05T18:01:08.356Z,7.00
2019-04-05T18:03:38.094Z,7.00
2019-04-05T18:06:07.895Z,7.00
2019-04-05T18:08:37.936Z,7.00
2019-04-05T18:11:07.724Z,7.10
2019-04-05T18:13:37.663Z,7.10
2019-04-05T18:16:07.439Z,7.10
2019-04-05T18:18:37.218Z,7.10
2019-04-05T18:21:06.875Z,7.10
2019-04-05T18:23:36.724Z,7.10
2019-04-05T18:26:06.681Z,7.10
2019-04-05T18:28:36.808Z,7.10
2019-04-05T18:31:06.699Z,7.10
2019-04-05T18:33:36.421Z,7.20
2019-04-05T18:36:06.361Z,7.10
2019-04-05T18:38:36.745Z,7.10
2019-04-05T18:41:06.559Z,7.10
2019-04-05T18:43:36.309Z,7.10
2019-04-05T18:46:06.201Z,7.10
2019-04-05T18:48:36.357Z,7.10
2019-04-05T18:51:06.644Z,7.10
2019-04-05T18:53:38.005Z,7.00
2019-04-05T18:56:10.846Z,7.10
2019-04-05T18:58:40.974Z,7.10
2019-04-05T19:01:10.742Z,7.10
2019-04-05T19:03:40.639Z,7.10
2019-04-05T19:06:10.512Z,7.10
2019-04-05T19:08:40.339Z,7.10
2019-04-05T19:11:10.172Z,7.10
2019-04-05T19:13:40.568Z,7.10
2019-04-05T19:16:10.527Z,7.00
2019-04-05T19:18:40.612Z,7.10
2019-04-05T19:21:10.444Z,7.00
2019-04-05T19:23:50.391Z,7.00
2019-04-05T19:26:12.095Z,7.00
2019-04-05T19:28:41.944Z,7.10
2019-04-05T19:48:53.947Z,7.10
2019-04-05T19:51:23.883Z,7.10
2019-04-05T19:54:01.023Z,7.10
2019-04-05T19:56:25.133Z,7.00
2019-04-05T19:58:54.709Z,7.00
2019-04-05T20:01:24.582Z,7.00
2019-04-05T20:03:54.267Z,7.10
2019-04-05T20:06:24.069Z,7.10
2019-04-05T20:08:53.814Z,7.10
2019-04-05T20:11:23.808Z,7.10
2019-04-05T20:13:53.705Z,7.10
2019-04-05T20:16:23.635Z,7.20
2019-04-05T20:18:53.445Z,7.10
2019-04-05T20:21:23.245Z,7.10
2019-04-05T20:23:53.071Z,7.10
2019-04-05T20:26:24.661Z,7.10
2019-04-05T20:28:54.455Z,7.10
2019-04-05T20:31:24.133Z,7.10
2019-04-05T20:33:53.733Z,7.10
2019-04-05T20:36:23.768Z,7.10
2019-04-05T20:38:53.696Z,7.10
2019-04-05T20:41:23.428Z,7.10
2019-04-05T20:43:53.274Z,7.00
2019-04-05T20:46:22.978Z,7.00
2019-04-05T20:48:52.654Z,7.00
2019-04-05T20:51:22.621Z,7.00
2019-04-05T20:53:53.399Z,7.00
2019-04-05T20:56:23.153Z,7.00
2019-04-05T20:58:53.450Z,7.10
2019-04-05T21:01:23.486Z,7.00
2019-04-05T21:03:53.236Z,7.00
2019-04-05T21:06:22.917Z,7.00
2019-04-05T21:08:52.887Z,7.00
2019-04-05T21:11:22.760Z,7.00
2019-04-05T21:13:52.745Z,7.00
2019-04-05T21:16:22.911Z,7.00
2019-04-05T21:18:52.644Z,7.00
2019-04-05T21:21:22.399Z,7.00
2019-04-05T21:23:52.291Z,7.10
2019-04-05T21:26:22.014Z,7.10
2019-04-05T21:28:52.079Z,7.10
2019-04-05T21:31:21.789Z,7.10
2019-04-05T21:33:51.541Z,7.10
2019-04-05T21:36:21.323Z,7.10
2019-04-05T21:38:51.085Z,7.10
2019-04-05T21:41:21.103Z,7.00
2019-04-05T21:43:50.877Z,7.00
2019-04-05T21:46:20.627Z,7.00
2019-04-05T21:48:50.380Z,7.00
2019-04-05T21:51:20.056Z,7.00
2019-04-05T21:53:50.163Z,7.10
2019-04-05T21:56:19.878Z,7.10
2019-04-05T21:58:49.587Z,7.10
2019-04-05T22:01:19.726Z,7.10
2019-04-05T22:03:49.443Z,7.10
2019-04-05T22:06:19.204Z,7.20
2019-04-05T22:08:49.012Z,7.10
2019-04-05T22:11:18.817Z,7.10
2019-04-05T22:13:48.634Z,7.10
2019-04-05T22:16:18.535Z,7.10
2019-04-05T22:18:48.378Z,7.20
2019-04-05T22:21:18.296Z,7.20
2019-04-05T22:23:48.083Z,7.20
2019-04-05T22:26:17.848Z,7.20
2019-04-05T22:28:47.554Z,7.20
2019-04-05T22:31:17.270Z,7.10
2019-04-05T22:33:47.018Z,7.20
2019-04-05T22:36:16.994Z,7.20
2019-04-05T22:38:46.783Z,7.10
2019-04-05T22:41:16.718Z,7.20
2019-04-05T22:43:46.365Z,7.10
2019-04-05T22:46:17.799Z,7.20
2019-04-05T22:48:47.732Z,7.10
2019-04-05T22:51:17.519Z,7.10
2019-04-05T22:53:47.200Z,7.10
2019-04-05T22:56:17.060Z,7.10
2019-04-05T22:58:47.058Z,7.10
2019-04-05T23:01:16.961Z,7.10
2019-04-05T23:03:46.515Z,7.10
2019-04-05T23:06:16.574Z,7.10
2019-04-05T23:08:46.226Z,7.10
2019-04-05T23:11:16.017Z,7.10
2019-04-05T23:13:45.738Z,7.10
2019-04-05T23:16:15.743Z,7.10
2019-04-05T23:18:45.963Z,7.10
2019-04-05T23:21:16.345Z,7.10
2019-04-05T23:23:46.079Z,7.10
2019-04-05T23:26:15.820Z,7.10
2019-04-05T23:28:45.786Z,7.10
2019-04-05T23:31:15.524Z,7.10
2019-04-05T23:33:45.117Z,7.10
2019-04-05T23:36:14.798Z,7.10
2019-04-05T23:38:44.748Z,7.10
2019-04-05T23:41:14.701Z,7.10
2019-04-05T23:43:44.316Z,7.10
2019-04-05T23:46:14.148Z,7.10
2019-04-05T23:48:44.112Z,7.10
2019-04-05T23:51:13.909Z,7.10
2019-04-05T23:53:43.554Z,7.20
2019-04-05T23:56:13.166Z,7.20
2019-04-05T23:58:42.868Z,7.20
